Flight Track Log - Related Links

Times and Time Zones

All times are in EDT time to prevent confusion due to time zone crossing. See the CTL18 flight status page for this flight to view local times or setup timezone preferences in your user account.

Time Position Orientation Groundspeed Altitude Reporting Facility
EDT Latitude Longitude Course Direction KTS MPH feet Rate Location/Type
Thu 09:08:15 PM 42.2067 -83.5742 230° Southwest 128 147 1,700  Level Cleveland Center
Thu 09:09:15 PM 42.1747 -83.5953 206° Southwest 137 158 2,500 694 Climbing Cleveland Center
Thu 09:10:16 PM 42.1372 -83.5906 175° South 146 168 3,100 234 Climbing Cleveland Center
Thu 09:11:23 PM 42.0856 -83.5797 171° South 172 198 3,000 -90 Descending Cleveland Center
Thu 09:12:29 PM 42.0558 -83.5225 125° Southeast 176 203 2,900 47 Descending Cleveland Center
Thu 09:13:30 PM 42.0386 -83.4600 110° East 173 199 3,100 98 Climbing Cleveland Center
Thu 09:14:31 PM 42.0211 -83.4006 112° Southeast 174 200 3,100 261 Level Cleveland Center
Thu 09:15:25 PM 42.0058 -83.3497 112° Southeast 167 192 3,600 626 Climbing Cleveland Center
Thu 09:16:26 PM 41.9886 -83.2875 110° East 169 194 4,300 569 Climbing Cleveland Center
Thu 09:17:21 PM 41.9731 -83.2364 112° Southeast 164 189 4,700 365 Climbing Cleveland Center
Thu 09:18:21 PM 41.9536 -83.1769 114° Southeast 171 197 5,000 189 Climbing Cleveland Center
Thu 09:19:28 PM 41.9342 -83.1064 110° East 182 209 5,100 47 Climbing Cleveland Center
Thu 09:20:29 PM 41.9169 -83.0444 110° East 183 211 5,100 -50 Level Cleveland Center
Thu 09:21:29 PM 41.9017 -82.9797 108° East 184 212 5,000 -50 Descending Cleveland Center
Thu 09:22:30 PM 41.8819 -82.9175 113° Southeast 181 208 5,000  Level Cleveland Center
Thu 09:22:46 PM 41.8739 -82.9006 123° Southeast 180 207 5,000  Level Cleveland Center
Thu 09:24:11 PM 41.8486 -82.8075 110° East 182 209 5,000 47 Level Cleveland Center
Thu 09:24:53 PM 41.8369 -82.7653 110° East 182 209 5,100 47 Climbing Cleveland Center
Thu 09:26:18 PM 41.8114 -82.6808 112° Southeast 181 208 5,100 -49 Level Cleveland Center
Thu 09:26:55 PM 41.8017 -82.6417 108° East 180 207 5,000 -49 Descending Cleveland Center
Thu 09:28:20 PM 41.7700 -82.5486 115° Southeast 181 208 5,000  Level Cleveland Center
Thu 09:29:02 PM 41.7583 -82.5067 110° East 180 207 5,000  Level Cleveland Center
Thu 09:30:03 PM 41.7425 -82.4450 109° East 178 205 5,000  Level Cleveland Center
Thu 09:31:04 PM 41.7250 -82.3803 110° East 181 208 5,000  Level Cleveland Center
Thu 09:31:58 PM 41.7092 -82.3217 110° East 180 207 5,000  Level Cleveland Center
Thu 09:33:11 PM 41.6872 -82.2458 111° Southeast 179 206 5,000 -171 Level Cleveland Center
Thu 09:34:18 PM 41.6653 -82.1814 114° Southeast 184 212 4,600 -331 Descending Cleveland Center
Thu 09:35:18 PM 41.6453 -82.1142 112° Southeast 188 216 4,300 -397 Descending Cleveland Center
Thu 09:36:19 PM 41.6275 -82.0500 110° East 189 217 3,800 -639 Descending Cleveland Center
Thu 09:37:20 PM 41.6053 -81.9800 113° Southeast 191 220 3,000 -744 Descending Cleveland Center
Thu 09:38:20 PM 41.5833 -81.9156 114° Southeast 179 206 2,300 -574 Descending Cleveland Center
Thu 09:39:15 PM 41.5650 -81.8681 117° Southeast 173 199 1,900 -470 Descending Cleveland Center
Thu 09:40:15 PM 41.5447 -81.8122 116° Southeast 154 177 1,400 -283 Descending Cleveland Center
Thu 09:41:22 PM 41.5286 -81.7619 113° Southeast 136 157 1,300 -141 Descending Cleveland Center
Thu 09:42:23 PM 41.5144 -81.7200 114° Southeast 110 127 1,100 -197 Descending Cleveland Center
Thu 09:44:00 PM 41.5175 -81.6833 110° East  Level Estimated
Thu 09:51:00 PM 41.5175 -81.6833 110° East  Level Estimated

Login

Don't have an account? Register now (free) for customized features, flight alerts, and more!